Time;durP1;ratioP1;P1;durP2;ratioP2;P2;SDS_P1;SDS_P2;PMS_P1;PMS_P2;Temp;Humidity;BMP_temperature;BMP_pressure;BME280_temperature;BME280_humidity;BME280_pressure;Samples;Min_cycle;Max_cycle;Signal;HPM_P1;HPM_P2
2021/12/08 00:00:10;;;;;;;11.93;5.45;;;-1.50;99.90;;;;;;5072230;28;20108;-80
2021/12/08 00:02:36;;;;;;;10.85;5.28;;;-1.40;99.90;;;;;;5068815;28;20393;-81
2021/12/08 00:05:03;;;;;;;9.00;4.82;;;-1.40;99.90;;;;;;5071105;28;20535;-79
2021/12/08 00:07:28;;;;;;;14.43;5.63;;;-1.30;99.90;;;;;;5072146;28;20128;-79
2021/12/08 00:10:05;;;;;;;12.43;6.10;;;-1.30;99.90;;;;;;5072626;28;20103;-79
2021/12/08 00:15:15;;;;;;;13.65;5.90;;;-1.50;99.90;;;;;;5073919;28;21095;-81
2021/12/08 00:17:41;;;;;;;11.05;5.18;;;-1.50;99.90;;;;;;5072614;28;20113;-80
2021/12/08 00:20:07;;;;;;;11.05;5.65;;;-1.50;99.90;;;;;;5072147;28;20059;-81
2021/12/08 00:22:33;;;;;;;13.90;5.97;;;-1.40;99.90;;;;;;5073033;28;20039;-79
2021/12/08 00:24:59;;;;;;;10.13;6.07;;;-1.40;99.90;;;;;;5073175;28;20127;-79
2021/12/08 00:27:24;;;;;;;11.27;5.65;;;-1.30;99.90;;;;;;5072832;28;20025;-80
2021/12/08 00:29:50;;;;;;;9.23;5.38;;;-1.30;99.90;;;;;;5072002;28;20400;-81
2021/12/08 00:32:16;;;;;;;11.23;5.97;;;-1.20;99.90;;;;;;5071308;28;20036;-81
2021/12/08 00:34:41;;;;;;;10.75;6.05;;;-1.10;99.90;;;;;;5073068;28;20227;-80
2021/12/08 00:37:07;;;;;;;10.05;5.28;;;-1.00;99.90;;;;;;5071346;28;20484;-78
2021/12/08 00:39:33;;;;;;;11.30;5.25;;;-1.00;99.90;;;;;;5075276;28;20029;-81
2021/12/08 00:41:59;;;;;;;7.63;5.32;;;-1.20;99.90;;;;;;5087658;28;20246;-82
2021/12/08 00:44:25;;;;;;;9.40;4.90;;;-1.20;99.90;;;;;;5087662;28;20029;-79
2021/12/08 00:46:50;;;;;;;14.85;6.07;;;-1.10;99.90;;;;;;5067094;28;20116;-78
2021/12/08 00:49:16;;;;;;;12.60;5.78;;;-1.10;99.90;;;;;;5072754;28;20035;-81
2021/12/08 00:51:42;;;;;;;13.57;5.85;;;-1.00;99.90;;;;;;5072421;28;20549;-80
2021/12/08 00:54:08;;;;;;;12.20;5.72;;;-1.10;99.90;;;;;;5054857;28;20119;-80
2021/12/08 00:56:34;;;;;;;9.27;5.93;;;-1.10;99.90;;;;;;5072144;28;20040;-80
2021/12/08 00:59:00;;;;;;;14.13;6.72;;;-1.10;99.90;;;;;;5037968;28;20510;-79
2021/12/08 01:01:26;;;;;;;10.88;6.57;;;-1.10;99.90;;;;;;5070641;28;20388;-80
2021/12/08 01:03:52;;;;;;;10.85;6.07;;;-1.20;99.90;;;;;;5066834;28;20044;-81
2021/12/08 01:06:19;;;;;;;9.68;5.55;;;-1.20;99.90;;;;;;5072529;28;20104;-80
2021/12/08 01:08:45;;;;;;;10.30;5.63;;;-1.30;99.90;;;;;;5071702;28;20024;-82
2021/12/08 01:11:15;;;;;;;12.85;5.82;;;-1.20;99.90;;;;;;5072356;28;20016;-79
2021/12/08 01:13:41;;;;;;;10.45;6.18;;;-1.20;99.90;;;;;;5071635;28;20020;-81
2021/12/08 01:16:07;;;;;;;12.43;5.35;;;-1.20;99.90;;;;;;5072531;28;20037;-78
2021/12/08 01:18:33;;;;;;;10.20;5.22;;;-1.30;99.90;;;;;;5071558;28;20426;-84
2021/12/08 01:21:00;;;;;;;11.18;5.90;;;-1.30;99.90;;;;;;5084666;28;20058;-81
2021/12/08 01:23:27;;;;;;;10.95;5.53;;;-1.40;99.90;;;;;;5071876;28;20064;-79
2021/12/08 01:25:54;;;;;;;11.82;5.60;;;-1.40;99.90;;;;;;5072186;28;20032;-82
2021/12/08 01:28:22;;;;;;;11.32;6.00;;;-1.40;99.90;;;;;;5071999;28;20031;-81
2021/12/08 01:30:49;;;;;;;15.02;6.22;;;-1.40;99.90;;;;;;5062577;28;20057;-81
2021/12/08 01:33:15;;;;;;;10.02;5.47;;;-1.20;99.90;;;;;;5070832;28;20043;-82
2021/12/08 01:35:41;;;;;;;12.20;6.15;;;-1.00;99.90;;;;;;5054181;28;20127;-80
2021/12/08 01:38:07;;;;;;;9.38;5.50;;;-1.00;99.90;;;;;;5071887;28;20111;-81
2021/12/08 01:40:33;;;;;;;10.73;4.80;;;-0.90;99.90;;;;;;5064176;28;20058;-80
2021/12/08 01:43:01;;;;;;;12.68;6.35;;;-0.90;99.90;;;;;;5070350;28;20549;-80
2021/12/08 01:48:18;;;;;;;10.82;5.18;;;-0.90;99.90;;;;;;5072169;28;20043;-80
2021/12/08 01:50:48;;;;;;;10.98;5.78;;;-0.90;99.90;;;;;;5069891;28;20035;-81
2021/12/08 01:53:14;;;;;;;9.37;5.53;;;-0.90;99.90;;;;;;5071759;28;20119;-81
2021/12/08 01:55:40;;;;;;;9.30;5.32;;;-1.00;99.90;;;;;;5071611;28;20465;-80
2021/12/08 01:58:08;;;;;;;11.80;5.32;;;-0.90;99.90;;;;;;5071736;28;20024;-80
2021/12/08 02:00:39;;;;;;;10.00;6.30;;;-0.90;99.90;;;;;;5070358;28;20086;-79
2021/12/08 02:03:06;;;;;;;11.77;6.10;;;-0.90;99.90;;;;;;5071429;28;20041;-79
2021/12/08 02:05:32;;;;;;;9.63;5.88;;;-1.00;99.90;;;;;;5071632;28;20103;-80
2021/12/08 02:07:58;;;;;;;11.30;5.75;;;-0.90;99.90;;;;;;5071221;28;20100;-78
2021/12/08 02:10:24;;;;;;;10.40;6.28;;;-0.90;99.90;;;;;;5071508;28;20108;-83
2021/12/08 02:12:50;;;;;;;9.63;5.57;;;-0.90;99.90;;;;;;5071705;28;20455;-83
2021/12/08 02:15:18;;;;;;;11.60;6.60;;;-0.90;99.90;;;;;;5071876;28;20037;-81
2021/12/08 02:17:46;;;;;;;11.32;5.90;;;-0.80;99.90;;;;;;5071546;28;20056;-79
2021/12/08 02:20:13;;;;;;;10.50;4.78;;;-0.70;99.90;;;;;;5064454;28;20059;-81
2021/12/08 02:22:39;;;;;;;10.13;5.50;;;-0.70;99.90;;;;;;5071164;28;20479;-82
2021/12/08 02:25:11;;;;;;;10.77;5.78;;;-0.80;99.90;;;;;;5073563;28;20109;-79
2021/12/08 02:27:37;;;;;;;8.75;4.72;;;-0.70;99.90;;;;;;5073809;28;20687;-83
2021/12/08 02:30:17;;;;;;;11.60;6.00;;;-0.60;99.90;;;;;;5069644;28;20036;-80
2021/12/08 02:49:10;;;;;;;11.93;5.28;;;-0.50;99.90;;;;;;5071955;28;20120;-80
2021/12/08 02:51:36;;;;;;;16.63;6.15;;;-0.50;99.90;;;;;;5071167;28;20395;-80
2021/12/08 02:54:02;;;;;;;9.82;5.97;;;-0.60;99.90;;;;;;5074963;28;20043;-79
2021/12/08 02:56:28;;;;;;;11.40;5.82;;;-0.70;99.90;;;;;;5073329;28;20052;-78
2021/12/08 02:58:54;;;;;;;12.40;6.75;;;-0.70;99.90;;;;;;5074364;28;20056;-79
2021/12/08 03:01:20;;;;;;;9.15;6.22;;;-0.70;99.90;;;;;;5074433;28;20534;-81
2021/12/08 03:03:45;;;;;;;11.15;5.30;;;-0.70;99.90;;;;;;5074313;28;20124;-77
2021/12/08 03:06:12;;;;;;;10.70;6.07;;;-0.60;99.90;;;;;;5074763;28;20099;-80
2021/12/08 03:08:39;;;;;;;9.27;5.35;;;-0.70;99.90;;;;;;5074462;28;20025;-79
2021/12/08 03:11:05;;;;;;;10.13;6.18;;;-0.60;99.90;;;;;;5073040;28;20020;-77
2021/12/08 03:13:37;;;;;;;9.63;5.20;;;-0.50;99.90;;;;;;5073182;28;20032;-79
2021/12/08 03:16:04;;;;;;;8.23;4.57;;;-0.50;99.90;;;;;;5073421;28;20081;-79
2021/12/08 03:18:35;;;;;;;13.18;5.22;;;-0.40;99.90;;;;;;5074353;28;20060;-80
2021/12/08 03:21:04;;;;;;;11.18;5.65;;;-0.40;99.90;;;;;;5072998;28;20032;-83
2021/12/08 03:23:45;;;;;;;9.80;5.32;;;-0.40;99.90;;;;;;5074110;28;20025;-82
2021/12/08 03:26:10;;;;;;;;;;;-0.40;99.90;;;;;;5074875;28;20082;-83
2021/12/08 03:28:43;;;;;;;10.35;5.28;;;-0.40;99.90;;;;;;5072929;28;19916;-80
2021/12/08 03:31:14;;;;;;;10.40;5.10;;;-0.40;99.90;;;;;;5072676;28;20065;-78
2021/12/08 03:33:41;;;;;;;14.40;6.18;;;-0.40;99.90;;;;;;5072537;28;20091;-80
2021/12/08 03:36:07;;;;;;;10.38;5.88;;;-0.40;99.90;;;;;;5073638;28;20029;-80
2021/12/08 03:38:33;;;;;;;9.93;5.63;;;-0.40;99.90;;;;;;5056104;28;20040;-78
2021/12/08 03:41:02;;;;;;;12.18;5.40;;;-0.40;99.90;;;;;;5074082;28;20033;-80
2021/12/08 03:43:28;;;;;;;9.25;5.43;;;-0.40;99.90;;;;;;5072721;28;20085;-81
2021/12/08 03:45:55;;;;;;;9.05;6.00;;;-0.40;99.90;;;;;;5069890;28;20103;-81
2021/12/08 03:48:29;;;;;;;9.88;5.28;;;-0.30;99.90;;;;;;5068508;28;20020;-79
2021/12/08 03:50:56;;;;;;;10.45;5.25;;;-0.30;99.90;;;;;;5070210;28;20437;-78
2021/12/08 03:53:22;;;;;;;9.63;5.68;;;-0.10;99.90;;;;;;5073708;28;20459;-81
2021/12/08 03:55:50;;;;;;;9.38;5.32;;;0.10;99.90;;;;;;5073795;28;20032;-81
2021/12/08 03:58:19;;;;;;;11.80;5.57;;;0.30;99.90;;;;;;5055648;28;20113;-81
2021/12/08 04:00:48;;;;;;;10.35;6.35;;;0.30;99.90;;;;;;5073126;28;20033;-80
2021/12/08 04:03:13;;;;;;;9.85;5.82;;;0.50;99.90;;;;;;5055680;28;20049;-83
2021/12/08 04:05:54;;;;;;;10.73;5.38;;;0.70;99.90;;;;;;5073815;28;20039;-80
2021/12/08 04:08:32;;;;;;;10.23;6.18;;;0.70;99.90;;;;;;5068127;28;20037;-79
2021/12/08 04:11:00;;;;;;;18.33;5.72;;;0.40;99.90;;;;;;5089084;28;20029;-80
2021/12/08 04:13:32;;;;;;;17.90;6.53;;;0.30;99.90;;;;;;5085248;28;20097;-79
2021/12/08 04:15:59;;;;;;;10.50;5.53;;;0.40;99.90;;;;;;5070212;28;20056;-79
2021/12/08 04:18:25;;;;;;;11.10;6.10;;;0.30;99.90;;;;;;5069137;28;20487;-80
2021/12/08 04:20:54;;;;;;;14.57;6.95;;;0.50;99.90;;;;;;5072317;28;20043;-79
2021/12/08 04:23:22;;;;;;;13.45;6.72;;;0.50;99.90;;;;;;5072082;28;20032;-80
2021/12/08 04:25:52;;;;;;;12.07;6.30;;;0.50;99.90;;;;;;5073377;28;20020;-80
2021/12/08 04:28:25;;;;;;;9.40;6.60;;;0.50;99.90;;;;;;5073491;28;20031;-81
2021/12/08 04:31:08;;;;;;;12.95;6.30;;;0.60;99.90;;;;;;5072520;28;20267;-81
2021/12/08 04:33:35;;;;;;;10.70;6.13;;;0.70;99.90;;;;;;5070110;28;20044;-80
2021/12/08 04:36:05;;;;;;;10.73;6.03;;;0.70;99.90;;;;;;5072112;28;20391;-81
2021/12/08 04:38:37;;;;;;;14.95;6.75;;;0.80;99.90;;;;;;5071827;28;20051;-81
2021/12/08 04:41:07;;;;;;;11.10;6.53;;;0.90;99.90;;;;;;5073151;28;20021;-81
2021/12/08 04:44:24;;;;;;;11.85;7.53;;;0.80;99.90;;;;;;5071429;28;20040;-79
2021/12/08 04:51:55;;;;;;;15.40;9.32;;;0.80;99.90;;;;;;5073206;28;20031;-79
2021/12/08 05:08:40;;;;;;;21.48;10.70;;;0.60;99.90;;;;;;5070389;28;20514;-78
2021/12/08 05:11:12;;;;;;;17.52;9.05;;;0.60;99.90;;;;;;5068474;28;20044;-82
2021/12/08 05:13:40;;;;;;;18.27;9.75;;;0.50;99.90;;;;;;5070586;28;20115;-83
2021/12/08 05:16:07;;;;;;;17.90;9.25;;;0.50;99.90;;;;;;5069840;28;20033;-80
2021/12/08 05:18:37;;;;;;;21.67;9.75;;;0.50;99.90;;;;;;5071564;28;20051;-81
2021/12/08 05:21:15;;;;;;;23.42;11.15;;;0.50;99.90;;;;;;5062828;28;20029;-80
2021/12/08 05:23:48;;;;;;;21.30;11.80;;;0.30;99.90;;;;;;5070931;28;20506;-80
2021/12/08 05:26:27;;;;;;;20.38;11.27;;;0.20;99.90;;;;;;5071582;28;20032;-81
2021/12/08 05:28:55;;;;;;;23.55;11.07;;;0.30;99.90;;;;;;5069521;28;20024;-82
2021/12/08 05:31:28;;;;;;;23.80;10.68;;;0.50;99.90;;;;;;5071631;28;20086;-81
2021/12/08 05:33:54;;;;;;;20.60;9.82;;;0.60;99.90;;;;;;5054617;28;20033;-80
2021/12/08 05:36:21;;;;;;;24.35;9.15;;;0.60;99.90;;;;;;5072031;28;20142;-80
2021/12/08 05:38:48;;;;;;;23.90;11.52;;;0.80;99.90;;;;;;5068860;28;20062;-84
2021/12/08 05:41:36;;;;;;;21.30;10.38;;;0.80;99.90;;;;;;5071796;28;20033;-83
2021/12/08 05:44:04;;;;;;;28.88;11.18;;;0.80;99.90;;;;;;5068519;28;20025;-83
2021/12/08 05:46:32;;;;;;;19.77;9.43;;;0.60;99.90;;;;;;5072122;28;20024;-82
2021/12/08 05:48:58;;;;;;;18.40;10.15;;;0.60;99.90;;;;;;5069605;28;20091;-80
2021/12/08 05:51:31;;;;;;;23.05;10.02;;;0.70;99.90;;;;;;5070901;28;20051;-81
2021/12/08 05:54:01;;;;;;;25.23;11.75;;;0.70;99.90;;;;;;5066239;28;20063;-82
2021/12/08 05:56:27;;;;;;;30.07;12.53;;;0.80;99.90;;;;;;5064954;28;20035;-82
2021/12/08 05:58:55;;;;;;;22.75;12.93;;;0.60;99.90;;;;;;5063800;28;20033;-82
2021/12/08 06:01:55;;;;;;;27.15;12.30;;;0.50;99.90;;;;;;5070545;28;20032;-82
2021/12/08 06:04:23;;;;;;;24.20;11.10;;;0.50;99.90;;;;;;5050904;28;20048;-79
2021/12/08 06:06:49;;;;;;;26.13;11.50;;;0.70;99.90;;;;;;5068181;28;20052;-82
2021/12/08 06:09:18;;;;;;;29.73;12.35;;;0.60;99.90;;;;;;5071756;28;20021;-81
2021/12/08 06:11:44;;;;;;;25.52;11.82;;;0.60;99.90;;;;;;5053487;28;20033;-84
2021/12/08 06:14:11;;;;;;;24.77;10.80;;;0.70;99.90;;;;;;5071513;28;20060;-81
2021/12/08 06:16:41;;;;;;;27.85;11.85;;;0.70;99.90;;;;;;5037240;28;20052;-82
2021/12/08 06:19:09;;;;;;;23.55;12.25;;;0.70;99.90;;;;;;5070306;28;20020;-82
2021/12/08 06:21:35;;;;;;;22.88;9.48;;;0.80;99.90;;;;;;5070728;28;20059;-84
2021/12/08 06:24:04;;;;;;;23.42;11.48;;;0.90;99.90;;;;;;5070199;28;20033;-84
2021/12/08 06:26:30;;;;;;;18.15;9.35;;;0.90;99.90;;;;;;5062565;28;20133;-84
2021/12/08 06:28:57;;;;;;;23.67;10.20;;;0.90;99.90;;;;;;5071486;28;20543;-85
2021/12/08 06:31:25;;;;;;;22.75;11.75;;;1.00;99.90;;;;;;5065731;28;20032;-82
2021/12/08 06:33:51;;;;;;;24.08;11.57;;;1.00;99.90;;;;;;5070551;28;20028;-83
2021/12/08 06:36:39;;;;;;;23.00;10.48;;;1.00;99.90;;;;;;5065523;28;20048;-85
2021/12/08 06:39:11;;;;;;;24.95;11.43;;;0.70;99.90;;;;;;5068384;28;20021;-84
2021/12/08 06:41:40;;;;;;;19.38;9.70;;;0.70;99.90;;;;;;5071400;28;20039;-85
2021/12/08 06:44:15;;;;;;;19.10;9.95;;;0.70;99.90;;;;;;5069196;28;20112;-85
2021/12/08 06:46:42;;;;;;;21.92;9.68;;;0.80;99.90;;;;;;5069740;28;20033;-85
2021/12/08 06:49:12;;;;;;;18.70;9.75;;;1.10;99.90;;;;;;5070178;28;20024;-81
2021/12/08 06:51:42;;;;;;;21.10;12.50;;;1.00;99.90;;;;;;5070476;28;20023;-83
2021/12/08 06:54:33;;;;;;;21.80;10.43;;;1.20;99.90;;;;;;5052471;28;20275;-86
2021/12/08 06:57:06;;;;;;;25.23;11.30;;;1.40;99.90;;;;;;5060955;28;20762;-85
2021/12/08 06:59:39;;;;;;;23.63;11.90;;;1.10;99.90;;;;;;5068024;28;20039;-82
2021/12/08 07:02:20;;;;;;;26.70;12.98;;;0.90;99.90;;;;;;5066072;28;20075;-84
2021/12/08 07:05:12;;;;;;;24.60;12.80;;;0.80;99.90;;;;;;5068613;28;20028;-83
2021/12/08 07:07:40;;;;;;;21.65;10.60;;;0.80;99.90;;;;;;5068195;28;20495;-82
2021/12/08 07:10:11;;;;;;;22.55;13.10;;;0.90;99.90;;;;;;5070447;28;20547;-84
2021/12/08 07:12:41;;;;;;;25.55;11.40;;;0.90;99.90;;;;;;5073213;28;20021;-83
2021/12/08 07:15:46;;;;;;;27.55;13.38;;;1.10;99.90;;;;;;5073034;28;20052;-87
2021/12/08 07:18:21;;;;;;;31.65;13.50;;;1.00;99.90;;;;;;5072471;28;20424;-85
2021/12/08 07:20:55;;;;;;;30.30;14.27;;;1.20;99.90;;;;;;5074603;28;20051;-85
2021/12/08 07:23:27;;;;;;;29.20;15.18;;;1.30;99.90;;;;;;5073294;28;20437;-84
2021/12/08 07:25:57;;;;;;;27.83;14.00;;;1.30;99.90;;;;;;5073810;28;20020;-83
2021/12/08 07:28:26;;;;;;;33.60;16.10;;;1.20;99.90;;;;;;5073440;28;20024;-82
2021/12/08 07:31:06;;;;;;;29.02;15.35;;;1.10;99.90;;;;;;5072699;28;20032;-84
2021/12/08 07:33:32;;;;;;;25.77;13.18;;;1.20;99.90;;;;;;5069543;28;20077;-85
2021/12/08 07:36:01;;;;;;;24.15;13.43;;;1.30;99.90;;;;;;5063141;28;20020;-84
2021/12/08 07:38:30;;;;;;;27.02;15.25;;;1.40;99.90;;;;;;5086186;28;20040;-83
2021/12/08 07:41:10;;;;;;;26.08;14.60;;;1.40;99.90;;;;;;5065785;28;20013;-83
2021/12/08 07:43:40;;;;;;;28.77;15.45;;;1.50;99.90;;;;;;5083827;28;20036;-83
2021/12/08 07:46:13;;;;;;;29.17;18.00;;;1.20;99.90;;;;;;5075352;28;20020;-83
2021/12/08 07:48:44;;;;;;;35.38;15.10;;;1.00;99.90;;;;;;5074246;28;20024;-85
2021/12/08 07:51:19;;;;;;;28.67;14.60;;;1.10;99.90;;;;;;5074373;28;20510;-83
2021/12/08 07:53:45;;;;;;;31.95;14.90;;;1.00;99.90;;;;;;5074353;28;20041;-84
2021/12/08 07:56:13;;;;;;;29.13;17.50;;;1.00;99.90;;;;;;5073512;28;20032;-86
2021/12/08 07:58:42;;;;;;;28.15;14.70;;;0.90;99.90;;;;;;5072278;28;20036;-86
2021/12/08 08:01:13;;;;;;;23.77;15.07;;;1.10;99.90;;;;;;5055753;28;20036;-83
2021/12/08 08:03:40;;;;;;;22.15;13.93;;;1.00;99.90;;;;;;5073317;28;20504;-83
2021/12/08 08:06:11;;;;;;;24.02;15.10;;;1.00;99.90;;;;;;5066991;28;20079;-82
2021/12/08 08:08:37;;;;;;;38.83;14.32;;;1.10;99.90;;;;;;5063672;28;20476;-84
2021/12/08 08:11:31;;;;;;;22.98;13.07;;;1.10;99.90;;;;;;5071864;28;20036;-84
2021/12/08 08:13:58;;;;;;;34.50;16.55;;;1.10;99.90;;;;;;5049574;28;20041;-84
2021/12/08 08:16:29;;;;;;;44.08;21.40;;;1.00;99.90;;;;;;5073650;28;20503;-83
2021/12/08 08:19:01;;;;;;;;;;;0.90;99.90;;;;;;5055673;28;20407;-84
2021/12/08 08:21:29;;;;;;;116.93;40.30;;;0.90;99.90;;;;;;5073353;28;19961;-84
2021/12/08 08:23:58;;;;;;;174.93;54.97;;;1.00;99.90;;;;;;5073218;28;20144;-84
2021/12/08 08:26:24;;;;;;;223.43;70.68;;;1.20;99.90;;;;;;5073423;28;20048;-85
2021/12/08 08:28:52;;;;;;;93.75;34.75;;;1.20;99.90;;;;;;5073016;28;20021;-84
2021/12/08 08:31:34;;;;;;;52.20;23.40;;;1.00;99.90;;;;;;5071672;28;20040;-84
2021/12/08 08:34:01;;;;;;;33.13;17.08;;;0.90;99.90;;;;;;5069343;28;20021;-84
2021/12/08 08:36:35;;;;;;;26.25;14.93;;;0.90;99.90;;;;;;5073285;28;20024;-82
2021/12/08 08:39:13;;;;;;;32.50;17.35;;;1.10;99.90;;;;;;5068318;28;20035;-82
2021/12/08 08:41:38;;;;;;;28.52;14.82;;;1.10;99.90;;;;;;5055202;28;20047;-85
2021/12/08 08:44:12;;;;;;;31.13;15.45;;;1.40;99.90;;;;;;5071582;28;20029;-82
2021/12/08 08:46:41;;;;;;;66.80;18.55;;;1.60;99.90;;;;;;5069955;28;20048;-82
2021/12/08 08:49:14;;;;;;;35.03;18.77;;;1.70;99.90;;;;;;5067357;28;20362;-83
2021/12/08 08:51:45;;;;;;;31.90;15.73;;;1.50;99.90;;;;;;5062767;28;20052;-84
2021/12/08 08:54:19;;;;;;;28.48;16.13;;;1.40;99.90;;;;;;5072486;28;20426;-83
2021/12/08 08:56:50;;;;;;;25.88;14.90;;;1.50;99.90;;;;;;5072865;28;20036;-85
2021/12/08 08:59:27;;;;;;;;;;;1.80;99.90;;;;;;5073205;28;20036;-83
2021/12/08 09:01:55;;;;;;;63.42;31.08;;;1.70;99.90;;;;;;5070533;28;20220;-84
2021/12/08 09:04:35;;;;;;;48.33;27.38;;;1.70;99.90;;;;;;5072645;28;20089;-84
2021/12/08 09:07:04;;;;;;;115.20;49.38;;;1.70;99.90;;;;;;5069139;28;20024;-85
2021/12/08 09:09:35;;;;;;;37.00;21.45;;;1.70;99.90;;;;;;5068737;28;20048;-86
2021/12/08 09:12:04;;;;;;;44.47;20.25;;;1.70;99.90;;;;;;5061278;28;20021;-84
2021/12/08 09:14:40;;;;;;;37.97;18.83;;;1.50;99.90;;;;;;5067184;28;20033;-84
2021/12/08 09:17:12;;;;;;;42.00;23.80;;;1.50;99.90;;;;;;5067696;28;20025;-83
2021/12/08 09:19:49;;;;;;;31.92;19.42;;;1.50;99.90;;;;;;5071012;28;20166;-83
2021/12/08 09:22:22;;;;;;;43.17;22.90;;;1.70;99.90;;;;;;5067605;28;20033;-85
2021/12/08 09:25:13;;;;;;;35.88;20.13;;;1.60;99.90;;;;;;5068319;28;20028;-85
2021/12/08 09:27:53;;;;;;;41.85;21.50;;;1.70;99.90;;;;;;5069107;28;20017;-83
2021/12/08 09:30:34;;;;;;;32.40;18.40;;;1.80;99.90;;;;;;5070667;28;20035;-83
2021/12/08 09:33:08;;;;;;;29.35;14.65;;;1.80;99.90;;;;;;5070618;28;20036;-84
2021/12/08 09:35:43;;;;;;;31.20;14.73;;;1.60;99.90;;;;;;5067498;28;20028;-86
2021/12/08 09:38:15;;;;;;;27.95;15.88;;;1.50;99.90;;;;;;5068075;28;20559;-84
2021/12/08 09:40:47;;;;;;;31.45;17.05;;;1.50;99.90;;;;;;5071030;28;20150;-85
2021/12/08 09:43:20;;;;;;;28.15;14.43;;;1.30;99.90;;;;;;5071928;28;20029;-83
2021/12/08 09:45:55;;;;;;;27.08;13.52;;;1.30;99.90;;;;;;5071753;28;20025;-85
2021/12/08 09:48:26;;;;;;;25.42;13.40;;;1.40;99.90;;;;;;5070742;28;20128;-85
2021/12/08 09:50:53;;;;;;;22.73;12.68;;;1.60;99.90;;;;;;5072148;28;20028;-84
2021/12/08 09:53:19;;;;;;;29.17;15.57;;;1.70;99.90;;;;;;5069056;28;20032;-82
2021/12/08 09:55:45;;;;;;;32.25;17.08;;;1.80;99.90;;;;;;5069810;28;20024;-86
2021/12/08 09:58:11;;;;;;;31.00;18.10;;;1.60;99.90;;;;;;5071598;28;20459;-84
2021/12/08 10:00:42;;;;;;;48.83;22.30;;;1.60;99.90;;;;;;5070292;28;20055;-83
2021/12/08 10:03:09;;;;;;;42.72;20.90;;;1.50;99.90;;;;;;5070433;28;20068;-83
2021/12/08 10:05:39;;;;;;;50.42;26.98;;;1.30;99.90;;;;;;5077185;28;20036;-84
2021/12/08 10:08:05;;;;;;;48.00;23.50;;;1.30;99.90;;;;;;5053941;28;20032;-84
2021/12/08 10:10:33;;;;;;;50.40;25.20;;;1.30;99.90;;;;;;5065973;28;20778;-85
2021/12/08 10:12:59;;;;;;;56.65;27.10;;;1.40;99.90;;;;;;5071499;28;20492;-86
2021/12/08 10:15:25;;;;;;;48.13;26.40;;;1.30;99.90;;;;;;5070662;28;20039;-85
2021/12/08 10:17:54;;;;;;;50.45;27.83;;;1.50;99.90;;;;;;5071482;28;20044;-83
2021/12/08 10:20:42;;;;;;;57.38;25.73;;;1.60;99.90;;;;;;5067966;28;20182;-85
2021/12/08 10:23:10;;;;;;;44.88;20.67;;;1.60;99.90;;;;;;5061846;28;20504;-83
2021/12/08 10:25:42;;;;;;;49.17;23.65;;;1.60;99.90;;;;;;5068040;28;20063;-83
2021/12/08 10:28:13;;;;;;;37.63;19.65;;;1.40;99.90;;;;;;5068368;28;20056;-88
2021/12/08 10:30:53;;;;;;;39.42;18.80;;;1.60;99.90;;;;;;5067359;28;20484;-85
2021/12/08 10:36:53;;;;;;;37.50;19.98;;;1.60;99.90;;;;;;5045483;28;20051;-85
2021/12/08 10:39:35;;;;;;;41.22;18.75;;;1.60;99.90;;;;;;5071936;28;20028;-86
2021/12/08 10:42:19;;;;;;;38.08;19.05;;;1.60;99.90;;;;;;5070233;28;20025;-84
2021/12/08 10:47:36;;;;;;;47.28;21.65;;;1.40;99.90;;;;;;5075276;28;20218;-85
2021/12/08 10:55:24;;;;;;;48.95;23.77;;;1.60;99.90;;;;;;5074473;28;20564;-86
2021/12/08 10:57:53;;;;;;;44.33;22.40;;;1.70;99.90;;;;;;5073562;28;20024;-77
2021/12/08 11:00:21;;;;;;;52.60;24.33;;;2.10;99.90;;;;;;5070565;28;20032;-78
2021/12/08 11:02:51;;;;;;;47.67;21.65;;;2.20;99.90;;;;;;5072837;28;20143;-86
2021/12/08 11:05:29;;;;;;;44.28;19.15;;;2.10;99.90;;;;;;5071512;28;20514;-87
2021/12/08 11:08:30;;;;;;;40.85;20.73;;;1.90;99.90;;;;;;5091587;28;20052;-84
2021/12/08 11:10:58;;;;;;;;;;;2.20;99.90;;;;;;5088985;28;20481;-84
2021/12/08 11:13:30;;;;;;;43.40;20.38;;;2.20;99.90;;;;;;5085358;28;20287;-86
2021/12/08 11:16:00;;;;;;;31.92;18.38;;;1.90;99.90;;;;;;5073950;28;20036;-84
2021/12/08 11:18:29;;;;;;;47.55;23.88;;;2.00;99.90;;;;;;5074971;28;20549;-85
2021/12/08 11:21:00;;;;;;;41.75;22.63;;;2.10;99.90;;;;;;5073793;28;20040;-86
2021/12/08 11:23:45;;;;;;;31.98;14.77;;;2.10;99.90;;;;;;5057627;28;20624;-90
2021/12/08 11:26:21;;;;;;;33.13;17.95;;;2.00;99.90;;;;;;5069607;28;20033;-85
2021/12/08 11:29:27;;;;;;;40.05;21.00;;;2.00;99.90;;;;;;5093900;28;20021;-86
2021/12/08 11:31:59;;;;;;;57.78;34.13;;;2.30;99.90;;;;;;5063846;28;20056;-84
2021/12/08 11:34:34;;;;;;;45.17;27.63;;;2.10;99.90;;;;;;5094197;28;20080;-84
2021/12/08 11:37:07;;;;;;;36.75;19.58;;;1.90;99.90;;;;;;5091762;28;20029;-84
2021/12/08 11:39:47;;;;;;;69.75;35.05;;;1.90;99.90;;;;;;5086926;28;20029;-87
2021/12/08 11:42:22;;;;;;;57.22;30.30;;;1.80;99.90;;;;;;5072326;28;20122;-87
2021/12/08 11:44:51;;;;;;;46.92;27.67;;;1.60;99.90;;;;;;5074816;28;20041;-82
2021/12/08 11:47:22;;;;;;;45.75;24.85;;;2.00;99.90;;;;;;5057642;28;20477;-85
2021/12/08 11:49:57;;;;;;;50.33;26.15;;;2.20;99.90;;;;;;5075429;28;20029;-87
2021/12/08 11:52:29;;;;;;;50.60;23.80;;;2.20;99.90;;;;;;5071921;28;20032;-86
2021/12/08 11:55:00;;;;;;;48.05;25.23;;;2.30;99.90;;;;;;5073881;28;20025;-85
2021/12/08 11:57:36;;;;;;;41.08;20.15;;;2.20;99.90;;;;;;5073593;28;20110;-86
2021/12/08 12:00:24;;;;;;;37.92;21.38;;;2.40;99.90;;;;;;5072962;28;20625;-85
2021/12/08 12:02:58;;;;;;;36.22;18.75;;;2.00;99.90;;;;;;5069794;28;20503;-85
2021/12/08 12:05:35;;;;;;;52.75;25.73;;;1.80;99.90;;;;;;5074406;28;20507;-86
2021/12/08 12:08:04;;;;;;;41.58;20.92;;;1.60;99.90;;;;;;5072750;28;20128;-86
2021/12/08 12:10:34;;;;;;;52.17;23.55;;;1.60;99.90;;;;;;5073571;28;20108;-85
2021/12/08 12:13:01;;;;;;;114.43;35.70;;;1.70;99.90;;;;;;5070921;28;20085;-85
2021/12/08 12:15:27;;;;;;;70.57;30.85;;;1.70;99.90;;;;;;5072123;28;20119;-86
2021/12/08 12:17:53;;;;;;;53.47;22.55;;;1.70;99.90;;;;;;5073760;28;20108;-87
2021/12/08 12:20:24;;;;;;;62.88;30.25;;;1.90;99.90;;;;;;5073744;28;20035;-85
2021/12/08 12:23:34;;;;;;;72.70;31.40;;;1.90;99.90;;;;;;5073361;28;20024;-86
2021/12/08 12:26:21;;;;;;;71.18;29.33;;;2.00;99.90;;;;;;5072128;28;20120;-88
2021/12/08 12:29:18;;;;;;;46.65;21.25;;;2.10;99.90;;;;;;5069988;28;20051;-85
2021/12/08 12:32:09;;;;;;;28.63;14.20;;;2.10;99.90;;;;;;5069876;28;20028;-86
2021/12/08 12:34:37;;;;;;;35.90;13.68;;;2.20;99.90;;;;;;5061816;28;20017;-85
2021/12/08 12:37:32;;;;;;;29.27;16.00;;;2.10;99.90;;;;;;5072163;28;20055;-84
2021/12/08 12:39:59;;;;;;;26.20;15.35;;;2.00;99.90;;;;;;5072367;28;20077;-83
2021/12/08 12:42:26;;;;;;;28.17;15.00;;;2.20;99.90;;;;;;5071899;28;20496;-83
2021/12/08 12:44:58;;;;;;;23.83;12.90;;;2.20;99.90;;;;;;5070487;28;20036;-83
2021/12/08 12:47:27;;;;;;;26.30;14.52;;;2.20;99.90;;;;;;5071113;28;20174;-83
2021/12/08 12:50:11;;;;;;;28.73;14.25;;;2.00;99.90;;;;;;5070907;28;20167;-83
2021/12/08 12:52:41;;;;;;;28.20;14.35;;;2.10;99.90;;;;;;5076441;28;20029;-83
2021/12/08 12:55:12;;;;;;;31.33;16.00;;;2.10;99.90;;;;;;5068751;28;20024;-83
2021/12/08 12:58:03;;;;;;;27.00;15.77;;;2.00;99.90;;;;;;5067192;28;20107;-83
2021/12/08 13:00:34;;;;;;;25.65;14.23;;;2.00;99.90;;;;;;5069553;28;20029;-83
2021/12/08 13:03:01;;;;;;;26.98;14.20;;;1.90;99.90;;;;;;5070729;28;20056;-85
2021/12/08 13:05:52;;;;;;;25.90;14.82;;;1.80;99.90;;;;;;5071582;28;20113;-82
2021/12/08 13:08:46;;;;;;;28.30;15.05;;;1.90;99.90;;;;;;5068336;28;20028;-83
2021/12/08 13:11:51;;;;;;;26.25;13.82;;;1.60;99.90;;;;;;5069916;28;20021;-83
2021/12/08 13:14:26;;;;;;;35.15;16.67;;;1.50;99.90;;;;;;5065657;28;20107;-84
2021/12/08 13:17:18;;;;;;;29.23;16.60;;;1.60;99.90;;;;;;5072478;28;20073;-85
2021/12/08 13:19:56;;;;;;;48.65;21.13;;;1.70;99.90;;;;;;5069268;28;20094;-81
2021/12/08 13:22:53;;;;;;;40.40;21.80;;;1.70;99.90;;;;;;5071127;28;20088;-83
2021/12/08 13:25:45;;;;;;;37.20;17.77;;;1.60;99.90;;;;;;5069117;28;20067;-82
2021/12/08 13:29:01;;;;;;;40.33;16.27;;;1.70;99.90;;;;;;5067576;28;20395;-85
2021/12/08 13:31:47;;;;;;;30.25;14.65;;;1.50;99.90;;;;;;5064832;28;20040;-83
2021/12/08 13:34:14;;;;;;;33.15;19.55;;;1.50;99.90;;;;;;5072109;28;20020;-84
2021/12/08 13:36:43;;;;;;;36.08;15.40;;;1.40;99.90;;;;;;5070337;28;20025;-85
2021/12/08 13:39:11;;;;;;;38.35;21.98;;;1.30;99.90;;;;;;5071825;28;20020;-85
2021/12/08 13:41:39;;;;;;;28.60;15.90;;;1.30;99.90;;;;;;5066488;28;20016;-83
2021/12/08 13:44:37;;;;;;;31.63;18.88;;;1.20;99.90;;;;;;5070773;28;20035;-86
2021/12/08 13:47:21;;;;;;;21.50;12.02;;;1.20;99.90;;;;;;5072130;28;20052;-83
2021/12/08 13:49:50;;;;;;;16.63;10.25;;;1.20;99.90;;;;;;5069396;28;20020;-86
2021/12/08 13:52:17;;;;;;;14.32;7.70;;;1.30;99.90;;;;;;5070926;28;20070;-85
2021/12/08 13:54:52;;;;;;;15.07;7.38;;;1.30;99.90;;;;;;5071054;28;20056;-84
2021/12/08 13:57:42;;;;;;;15.15;7.25;;;1.20;99.90;;;;;;5071459;28;20517;-84